| time (UTC) | temp C | wind direction | speed KPH | gust KPH | rain 1hr cm | rain 24hr cm | rain mn cm | humidity % | barometer mb |
| 20260902193053 | 20 | 145 | 9.7 | 25.7 | 0.00 | 0.00 | 0.00 | 38 | 1005.7 |
| 20260902191551 | 20 | 226 | 16.1 | 25.7 | 0.00 | 0.00 | 0.00 | 39 | 1005.7 |
| 20260902190049 | 20 | 178 | 12.9 | 20.9 | 0.00 | 0.00 | 0.00 | 40 | 1005.8 |
| 20260902184557 | 20 | 234 | 8.0 | 24.1 | 0.00 | 0.00 | 0.00 | 41 | 1005.8 |
| 20260902183046 | 20 | 204 | 11.3 | 22.5 | 0.00 | 0.00 | 0.00 | 40 | 1006.0 |
| 20260902181545 | 20 | 204 | 12.9 | 22.5 | 0.00 | 0.00 | 0.00 | 42 | 1006.1 |
| 20260902180101 | 18 | 294 | 4.8 | 16.1 | 0.00 | 0.00 | 0.00 | 49 | 1006.1 |
| 20260902174540 | 18 | 263 | 9.7 | 16.1 | 0.00 | 0.00 | 0.00 | 48 | 1006.0 |
| 20260902173038 | 18 | 233 | 8.0 | 14.5 | 0.00 | 0.00 | 0.00 | 48 | 1006.2 |
| 20260902171534 | 17 | 230 | 3.2 | 12.9 | 0.00 | 0.00 | 0.00 | 51 | 1006.4 |
| 20260902170033 | 17 | 278 | 8.0 | 12.9 | 0.00 | 0.00 | 0.00 | 53 | 1006.7 |
| 20260902164532 | 17 | 278 | 3.2 | 12.9 | 0.00 | 0.00 | 0.00 | 54 | 1006.7 |
| 20260902163028 | 16 | 309 | 4.8 | 8.0 | 0.00 | 0.00 | 0.00 | 55 | 1006.7 |
| 20260902161528 | 16 | 272 | 1.6 | 6.4 | 0.00 | 0.00 | 0.00 | 59 | 1006.9 |
| 20260902160021 | 15 | 282 | 4.8 | 9.7 | 0.00 | 0.00 | 0.00 | 60 | 1007.1 |
| 20260902154527 | 15 | 278 | 3.2 | 8.0 | 0.00 | 0.00 | 0.00 | 63 | 1007.3 |
| 20260902153016 | 14 | 261 | 4.8 | 9.7 | 0.00 | 0.00 | 0.00 | 65 | 1007.3 |
| 20260902151512 | 13 | 230 | 8.0 | 12.9 | 0.00 | 0.00 | 0.00 | 67 | 1007.3 |
| 20260902150012 | 13 | 211 | 6.4 | 9.7 | 0.00 | 0.00 | 0.00 | 68 | 1007.2 |
| 20260902144524 | 12 | 123 | 3.2 | 6.4 | 0.00 | 0.00 | 0.00 | 71 | 1007.4 |
| 20260902143004 | 10 | 119 | 3.2 | 8.0 | 0.00 | 0.00 | 0.00 | 79 | 1007.4 |
| 20260902141505 | -17 | 0.0 | 0.0 | 0.00 | 0.00 | 0.00 | 1007.5 | ||
| 20260902140057 | -17 | 0.0 | 0.0 | 0.00 | 0.00 | 0.00 | 1007.4 | ||
| 20260902134553 | -17 | 0.0 | 0.0 | 0.00 | 0.00 | 0.00 | 1007.4 | ||
| 20260902133049 | -17 | 0.0 | 0.0 | 0.00 | 0.00 | 0.00 | 1007.6 | ||
| 20260902131544 | -17 | 0.0 | 0.0 | 0.00 | 0.00 | 0.00 | 1007.4 | ||
| 20260902130039 | -17 | 0.0 | 0.0 | 0.00 | 0.00 | 0.00 | 1007.4 | ||
| 20260902124536 | -17 | 0.0 | 0.0 | 0.00 | 0.00 | 0.00 | 1007.4 | ||
| 20260902123033 | -17 | 0.0 | 0.0 | 0.00 | 0.00 | 0.00 | 1007.4 | ||
| 20260902121527 | -17 | 0.0 | 0.0 | 0.00 | 0.00 | 0.00 | 1007.6 | ||
| 20260902120022 | 10 | 225 | 6.4 | 11.3 | 0.00 | 0.00 | 0.00 | 74 | 1007.8 |
| 20260902114529 | 11 | 189 | 4.8 | 11.3 | 0.00 | 0.00 | 0.00 | 74 | 1007.9 |
| 20260902113033 | 11 | 166 | 4.8 | 11.3 | 0.00 | 0.00 | 0.00 | 74 | 1007.9 |
| 20260902111523 | 11 | 124 | 8.0 | 17.7 | 0.00 | 0.00 | 0.00 | 74 | 1007.9 |
| 20260902110019 | 11 | 126 | 8.0 | 14.5 | 0.00 | 0.00 | 0.00 | 74 | 1007.9 |
| 20260902104518 | 10 | 123 | 8.0 | 12.9 | 0.00 | 0.00 | 0.00 | 76 | 1007.8 |
| 20260902103026 | 10 | 126 | 6.4 | 12.9 | 0.00 | 0.00 | 0.00 | 77 | 1007.8 |
| 20260902101519 | 10 | 150 | 6.4 | 11.3 | 0.00 | 0.00 | 0.00 | 79 | 1007.7 |
| 20260902100017 | 10 | 146 | 3.2 | 6.4 | 0.00 | 0.00 | 0.00 | 80 | 1007.5 |
| 20260902094515 | 10 | 140 | 3.2 | 4.8 | 0.00 | 0.00 | 0.00 | 81 | 1007.2 |
| 20260902093009 | 10 | 156 | 3.2 | 4.8 | 0.00 | 0.00 | 0.00 | 81 | 1007.4 |
| 20260902091509 | 10 | 184 | 3.2 | 8.0 | 0.00 | 0.00 | 0.00 | 81 | 1007.6 |
| 20260902090006 | 10 | 135 | 4.8 | 9.7 | 0.00 | 0.00 | 0.00 | 80 | 1007.8 |
| 20260902084502 | 10 | 159 | 3.2 | 8.0 | 0.00 | 0.00 | 0.00 | 80 | 1007.8 |
| 20260902083101 | 11 | 199 | 3.2 | 11.3 | 0.00 | 0.00 | 0.00 | 79 | 1007.7 |
| 20260902081605 | 11 | 218 | 4.8 | 9.7 | 0.00 | 0.00 | 0.00 | 79 | 1007.7 |
| 20260902080056 | 11 | 206 | 6.4 | 12.9 | 0.00 | 0.00 | 0.00 | 78 | 1007.9 |
| 20260902074554 | 11 | 218 | 6.4 | 16.1 | 0.00 | 0.00 | 0.00 | 78 | 1008.0 |
| 20260902073056 | 11 | 229 | 8.0 | 16.1 | 0.00 | 0.00 | 0.00 | 77 | 1007.8 |
| 20260902071550 | 11 | 248 | 9.7 | 17.7 | 0.00 | 0.00 | 0.00 | 76 | 1007.8 |
| 20260902070046 | 12 | 222 | 12.9 | 19.3 | 0.00 | 0.00 | 0.00 | 75 | 1007.7 |
| 20260902064550 | 12 | 244 | 11.3 | 19.3 | 0.00 | 0.00 | 0.00 | 75 | 1007.7 |
| 20260902063051 | 12 | 192 | 12.9 | 20.9 | 0.00 | 0.00 | 0.00 | 74 | 1007.6 |
| 20260902061556 | 12 | 229 | 9.7 | 16.1 | 0.00 | 0.00 | 0.00 | 74 | 1007.6 |
| 20260902060041 | 12 | 229 | 12.9 | 20.9 | 0.00 | 0.00 | 0.00 | 72 | 1007.5 |
| 20260902054547 | 12 | 211 | 12.9 | 19.3 | 0.00 | 0.00 | 0.00 | 72 | 1007.5 |
| 20260902053044 | 12 | 237 | 9.7 | 22.5 | 0.00 | 0.00 | 0.00 | 71 | 1007.4 |
| 20260902051538 | 13 | 230 | 12.9 | 17.7 | 0.00 | 0.00 | 0.00 | 70 | 1007.4 |
| 20260902050035 | 13 | 234 | 12.9 | 17.7 | 0.00 | 0.00 | 0.00 | 69 | 1007.5 |
| 20260902044532 | 13 | 246 | 12.9 | 17.7 | 0.00 | 0.00 | 0.00 | 68 | 1007.3 |
| 20260902043030 | 13 | 236 | 11.3 | 19.3 | 0.00 | 0.00 | 0.00 | 66 | 1007.0 |
| 20260902041529 | 13 | 251 | 19.3 | 27.4 | 0.00 | 0.00 | 0.00 | 65 | 1006.8 |
| 20260902040032 | 14 | 268 | 20.9 | 29.0 | 0.00 | 0.00 | 0.00 | 64 | 1006.6 |
| 20260902034527 | 15 | 261 | 25.7 | 38.6 | 0.00 | 0.00 | 0.00 | 62 | 1006.4 |
| 20260902033024 | 15 | 244 | 19.3 | 32.2 | 0.00 | 0.00 | 0.00 | 60 | 1006.1 |
| 20260902031523 | 15 | 249 | 19.3 | 25.7 | 0.00 | 0.00 | 0.00 | 59 | 1005.9 |
| 20260902030021 | 15 | 254 | 12.9 | 25.7 | 0.00 | 0.00 | 0.00 | 57 | 1005.7 |
| 20260902024521 | 16 | 256 | 11.3 | 17.7 | 0.00 | 0.00 | 0.00 | 55 | 1005.6 |
| 20260902023020 | 16 | 260 | 11.3 | 19.3 | 0.00 | 0.00 | 0.00 | 54 | 1005.5 |
| 20260902021520 | 17 | 247 | 12.9 | 20.9 | 0.00 | 0.00 | 0.00 | 52 | 1005.2 |
| 20260902020021 | 17 | 247 | 11.3 | 17.7 | 0.00 | 0.00 | 0.00 | 51 | 1004.9 |
| 20260902014531 | 18 | 257 | 9.7 | 17.7 | 0.00 | 0.00 | 0.00 | 50 | 1004.9 |
| 20260902013018 | 18 | 257 | 11.3 | 16.1 | 0.00 | 0.00 | 0.00 | 49 | 1004.5 |
| 20260902011534 | 19 | 282 | 12.9 | 25.7 | 0.00 | 0.00 | 0.00 | 48 | 1004.5 |
| 20260902010015 | 20 | 267 | 16.1 | 27.4 | 0.00 | 0.00 | 0.00 | 44 | 1004.2 |
| 20260902004514 | 21 | 275 | 16.1 | 25.7 | 0.00 | 0.00 | 0.00 | 39 | 1004.1 |
| 20260902003014 | 22 | 274 | 16.1 | 24.1 | 0.00 | 0.00 | 0.00 | 33 | 1004.1 |
| 20260902001515 | 22 | 296 | 16.1 | 27.4 | 0.00 | 0.00 | 0.00 | 35 | 1004.1 |
| 20260902000013 | 23 | 282 | 14.5 | 24.1 | 0.00 | 0.00 | 0.00 | 33 | 1004.1 |
| 20260901234512 | 23 | 270 | 12.9 | 24.1 | 0.00 | 0.00 | 0.00 | 33 | 1003.9 |
| 20260901233011 | 24 | 279 | 12.9 | 29.0 | 0.00 | 0.00 | 0.00 | 31 | 1004.0 |
| 20260901231511 | 25 | 261 | 12.9 | 24.1 | 0.00 | 0.00 | 0.00 | 31 | 1003.9 |
| 20260901230009 | 24 | 263 | 12.9 | 27.4 | 0.00 | 0.00 | 0.00 | 32 | 1004.0 |
| 20260901224512 | 24 | 279 | 17.7 | 27.4 | 0.00 | 0.00 | 0.00 | 33 | 1004.0 |
| 20260901223011 | 24 | 292 | 9.7 | 25.7 | 0.00 | 0.00 | 0.00 | 33 | 1004.0 |
| 20260901221505 | 24 | 301 | 12.9 | 25.7 | 0.00 | 0.00 | 0.00 | 35 | 1004.2 |
| 20260901220004 | 24 | 292 | 9.7 | 25.7 | 0.00 | 0.00 | 0.00 | 35 | 1004.3 |
| 20260901214508 | 24 | 264 | 11.3 | 24.1 | 0.00 | 0.00 | 0.00 | 35 | 1004.4 |
| 20260901213000 | 23 | 237 | 14.5 | 27.4 | 0.00 | 0.00 | 0.00 | 36 | 1004.6 |
| 20260901211559 | 23 | 281 | 12.9 | 25.7 | 0.00 | 0.00 | 0.00 | 36 | 1004.7 |
| 20260901210114 | 23 | 277 | 11.3 | 25.7 | 0.00 | 0.00 | 0.00 | 36 | 1004.9 |
| 20260901204555 | 23 | 281 | 14.5 | 25.7 | 0.00 | 0.00 | 0.00 | 37 | 1004.9 |
| 20260901203052 | 23 | 303 | 12.9 | 25.7 | 0.00 | 0.00 | 0.00 | 39 | 1005.0 |
| 20260901201549 | 22 | 265 | 12.9 | 20.9 | 0.00 | 0.00 | 0.00 | 39 | 1005.3 |
| 20260901200048 | 22 | 285 | 11.3 | 17.7 | 0.00 | 0.00 | 0.00 | 38 | 1005.5 |
| 20260901194552 | 22 | 257 | 11.3 | 20.9 | 0.00 | 0.00 | 0.00 | 40 | 1005.7 |